createdAt,value
2023-04-18T00:02:23.928Z,14.63
2023-04-18T00:04:52.704Z,15.48
2023-04-18T00:07:21.823Z,15.48
2023-04-18T00:09:50.350Z,14.07
2023-04-18T00:12:21.055Z,13.95
2023-04-18T00:14:50.552Z,13.93
2023-04-18T00:17:20.477Z,14.13
2023-04-18T00:19:48.911Z,13.50
2023-04-18T00:22:22.409Z,12.88
2023-04-18T00:24:51.440Z,11.38
2023-04-18T00:27:22.289Z,10.30
2023-04-18T00:29:50.742Z,8.35
2023-04-18T00:32:19.896Z,8.43
2023-04-18T00:34:48.515Z,8.88
2023-04-18T00:37:16.967Z,9.18
2023-04-18T00:39:45.492Z,8.75
2023-04-18T00:42:13.998Z,8.95
2023-04-18T00:44:43.849Z,8.70
2023-04-18T00:47:12.452Z,8.27
2023-04-18T00:49:41.223Z,8.43
2023-04-18T00:52:10.082Z,8.85
2023-04-18T00:54:38.822Z,9.30
2023-04-18T00:57:08.043Z,8.25
2023-04-18T00:59:36.976Z,8.30
2023-04-18T01:02:07.193Z,8.80
2023-04-18T01:04:36.076Z,7.85
2023-04-18T01:07:05.266Z,8.13
2023-04-18T01:09:34.029Z,8.32
2023-04-18T01:12:02.466Z,9.05
2023-04-18T01:14:30.999Z,8.32
2023-04-18T01:16:59.433Z,9.55
2023-04-18T01:19:29.328Z,10.00
2023-04-18T01:21:58.474Z,9.02
2023-04-18T01:24:29.938Z,9.30
2023-04-18T01:26:58.809Z,8.30
2023-04-18T01:29:28.123Z,9.48
2023-04-18T01:31:58.670Z,9.40
2023-04-18T01:34:27.151Z,9.35
2023-04-18T01:36:55.900Z,8.75
2023-04-18T01:39:24.410Z,9.43
2023-04-18T01:41:55.947Z,8.73
2023-04-18T01:44:24.398Z,9.38
2023-04-18T01:46:52.933Z,11.13
2023-04-18T01:49:21.477Z,9.88
2023-04-18T01:51:51.361Z,9.98
2023-04-18T01:54:19.824Z,9.70
2023-04-18T01:56:48.291Z,9.85
2023-04-18T01:59:18.221Z,9.60
2023-04-18T02:01:46.753Z,10.50
2023-04-18T02:04:15.570Z,9.50
2023-04-18T02:06:44.382Z,9.73
2023-04-18T02:09:12.886Z,10.15
2023-04-18T02:11:44.460Z,10.25
2023-04-18T02:14:13.471Z,9.65
2023-04-18T02:16:43.637Z,9.63
2023-04-18T02:19:13.027Z,9.68
2023-04-18T02:21:44.662Z,9.93
2023-04-18T02:24:13.406Z,10.15
2023-04-18T02:26:45.551Z,9.27
2023-04-18T02:29:14.022Z,10.18
2023-04-18T02:31:43.958Z,10.07
2023-04-18T02:34:16.719Z,9.68
2023-04-18T02:36:45.194Z,10.18
2023-04-18T02:39:13.680Z,10.30
2023-04-18T02:41:44.128Z,9.52
2023-04-18T02:44:12.854Z,8.93
2023-04-18T02:46:41.708Z,9.65
2023-04-18T02:49:15.616Z,9.70
2023-04-18T02:51:46.714Z,9.10
2023-04-18T02:54:15.799Z,10.60
2023-04-18T02:57:04.738Z,9.85
2023-04-18T02:59:55.454Z,10.77
2023-04-18T03:02:36.235Z,10.23
2023-04-18T03:05:19.333Z,10.10
2023-04-18T03:07:47.915Z,12.85
2023-04-18T03:10:17.026Z,10.82
2023-04-18T03:12:45.473Z,10.48
2023-04-18T03:15:14.135Z,9.95
2023-04-18T03:17:43.783Z,9.90
2023-04-18T03:20:13.511Z,9.70
2023-04-18T03:22:43.845Z,9.85
2023-04-18T03:25:13.526Z,9.25
2023-04-18T03:27:46.200Z,9.50
2023-04-18T03:30:18.477Z,10.38
2023-04-18T03:32:53.814Z,9.95
2023-04-18T03:35:22.332Z,9.43
2023-04-18T03:37:52.832Z,10.00
2023-04-18T03:43:05.140Z,9.77
2023-04-18T03:45:33.911Z,10.55
2023-04-18T03:48:02.579Z,10.13
2023-04-18T03:50:35.409Z,9.93
2023-04-18T03:53:08.098Z,9.57
2023-04-18T03:55:38.290Z,10.38
2023-04-18T03:58:07.013Z,10.70
2023-04-18T04:00:35.975Z,9.57
2023-04-18T04:05:37.604Z,10.40
2023-04-18T04:08:08.212Z,9.02
2023-04-18T04:10:36.745Z,9.80
2023-04-18T04:13:05.425Z,9.95
2023-04-18T04:15:38.610Z,11.85
2023-04-18T04:18:09.288Z,10.85
2023-04-18T04:20:41.051Z,11.05
2023-04-18T04:23:17.452Z,11.20
2023-04-18T04:25:48.240Z,11.35
2023-04-18T04:28:31.726Z,10.40
2023-04-18T04:31:08.288Z,10.70
2023-04-18T04:33:38.940Z,11.07
2023-04-18T04:36:18.873Z,10.52
2023-04-18T04:38:52.437Z,9.07
2023-04-18T04:41:27.916Z,9.52
2023-04-18T04:43:56.607Z,9.50
2023-04-18T04:46:30.656Z,9.75
2023-04-18T04:49:01.384Z,9.32
2023-04-18T04:51:30.075Z,9.52
2023-04-18T04:54:00.053Z,9.23
2023-04-18T04:56:28.632Z,10.13
2023-04-18T04:58:57.570Z,9.05
2023-04-18T05:01:32.255Z,9.45
2023-04-18T05:04:01.282Z,9.02
2023-04-18T05:06:30.002Z,9.20
2023-04-18T05:09:01.221Z,8.82
2023-04-18T05:11:29.861Z,9.10
2023-04-18T05:13:58.299Z,9.15
2023-04-18T05:16:27.526Z,9.10
2023-04-18T05:18:55.948Z,8.73
2023-04-18T05:21:26.142Z,10.50
2023-04-18T05:23:54.718Z,9.90
2023-04-18T05:26:24.738Z,10.88
2023-04-18T05:28:53.229Z,10.25
2023-04-18T05:31:21.839Z,10.52
2023-04-18T05:33:50.361Z,11.48
2023-04-18T05:36:18.845Z,10.20
2023-04-18T05:38:47.306Z,11.13
2023-04-18T05:41:16.053Z,10.18
2023-04-18T05:43:54.195Z,10.45
2023-04-18T05:46:31.044Z,9.50
2023-04-18T05:48:59.618Z,9.85
2023-04-18T05:51:28.750Z,9.38
2023-04-18T05:53:57.374Z,10.10
2023-04-18T05:56:26.924Z,9.73
2023-04-18T05:58:56.815Z,10.45
2023-04-18T06:01:25.270Z,10.45
2023-04-18T06:03:53.934Z,10.40
2023-04-18T06:06:22.777Z,10.95
2023-04-18T06:08:51.172Z,12.68
2023-04-18T06:11:20.299Z,10.65
2023-04-18T06:13:48.800Z,10.43
2023-04-18T06:16:19.188Z,11.25
2023-04-18T06:18:47.655Z,11.43
2023-04-18T06:21:16.228Z,11.75
2023-04-18T06:23:44.733Z,10.90
2023-04-18T06:26:13.254Z,11.70
2023-04-18T06:28:41.772Z,11.90
2023-04-18T06:31:10.733Z,11.60
2023-04-18T06:33:40.691Z,11.75
2023-04-18T06:36:10.088Z,11.95
2023-04-18T06:38:38.564Z,11.23
2023-04-18T06:41:06.991Z,12.13
2023-04-18T06:43:35.994Z,12.90
2023-04-18T06:46:05.761Z,12.30
2023-04-18T06:48:34.219Z,12.70
2023-04-18T06:51:04.870Z,12.98
2023-04-18T06:53:33.321Z,13.30
2023-04-18T06:56:01.897Z,13.73
2023-04-18T06:58:30.667Z,13.30
2023-04-18T07:00:59.251Z,12.15
2023-04-18T07:03:27.783Z,10.82
2023-04-18T07:05:56.775Z,11.60
2023-04-18T07:08:26.680Z,10.88
2023-04-18T07:10:55.157Z,11.68
2023-04-18T07:13:23.664Z,12.68
2023-04-18T07:15:52.148Z,12.60
2023-04-18T07:18:30.352Z,12.63
2023-04-18T07:21:03.160Z,12.40
2023-04-18T07:23:32.976Z,13.52
2023-04-18T07:26:02.763Z,13.00
2023-04-18T07:28:32.919Z,14.23
2023-04-18T07:31:03.218Z,13.48
2023-04-18T07:33:34.014Z,13.30
2023-04-18T07:36:03.147Z,13.18
2023-04-18T07:38:34.869Z,12.88
2023-04-18T07:41:04.148Z,13.27
2023-04-18T07:43:32.639Z,13.73
2023-04-18T07:46:01.327Z,13.55
2023-04-18T07:48:29.917Z,14.18
2023-04-18T07:50:58.505Z,14.32
2023-04-18T07:53:27.145Z,12.32
2023-04-18T07:55:57.092Z,11.07
2023-04-18T07:58:25.636Z,10.30
2023-04-18T08:00:54.056Z,10.23
2023-04-18T08:03:22.745Z,10.23
2023-04-18T08:05:52.014Z,13.35
2023-04-18T08:08:21.296Z,10.27
2023-04-18T08:10:49.829Z,10.57
2023-04-18T08:13:19.808Z,10.27
2023-04-18T08:15:48.818Z,10.23
2023-04-18T08:18:17.390Z,10.75
2023-04-18T08:20:46.099Z,11.20
2023-04-18T08:23:15.016Z,10.73
2023-04-18T08:25:43.632Z,10.45
2023-04-18T08:28:12.121Z,10.40
2023-04-18T08:30:42.784Z,10.50
2023-04-18T08:33:11.363Z,10.25
2023-04-18T08:35:39.923Z,10.07
2023-04-18T08:38:11.818Z,9.75
2023-04-18T08:40:40.396Z,10.18
2023-04-18T08:43:12.403Z,10.43
2023-04-18T08:45:42.563Z,10.13
2023-04-18T08:48:13.934Z,10.73
2023-04-18T08:50:43.098Z,10.32
2023-04-18T08:53:13.006Z,10.20
2023-04-18T08:55:42.184Z,11.30
2023-04-18T08:58:13.196Z,10.77
2023-04-18T09:00:43.113Z,10.05
2023-04-18T09:03:16.970Z,10.13
2023-04-18T09:05:48.631Z,9.75
2023-04-18T09:08:24.715Z,10.68
2023-04-18T09:10:53.244Z,10.10
2023-04-18T09:13:39.923Z,11.45
2023-04-18T09:16:10.028Z,11.00
2023-04-18T09:18:38.552Z,10.50
2023-04-18T09:21:19.511Z,12.48
2023-04-18T09:23:50.459Z,10.80
2023-04-18T09:26:35.941Z,11.68
2023-04-18T09:29:05.291Z,12.80
2023-04-18T09:31:35.887Z,12.15
2023-04-18T09:34:05.292Z,12.32
2023-04-18T09:36:36.134Z,11.90
2023-04-18T09:39:04.647Z,10.68
2023-04-18T09:41:33.701Z,9.93
2023-04-18T09:44:14.364Z,8.90
2023-04-18T09:46:47.592Z,9.20
2023-04-18T09:49:17.585Z,7.78
2023-04-18T09:51:47.596Z,8.93
2023-04-18T09:54:17.713Z,9.32
2023-04-18T09:56:47.290Z,9.65
2023-04-18T09:59:20.513Z,8.65
2023-04-18T10:01:52.425Z,9.57
2023-04-18T10:04:21.390Z,8.65
2023-04-18T10:06:50.395Z,9.27
2023-04-18T10:09:19.595Z,8.90
2023-04-18T10:11:48.481Z,8.98
2023-04-18T10:14:17.941Z,8.93
2023-04-18T10:16:49.296Z,8.98
2023-04-18T10:19:25.477Z,8.43
2023-04-18T10:21:55.586Z,9.13
2023-04-18T10:24:49.764Z,8.48
2023-04-18T10:27:19.966Z,9.50
2023-04-18T10:29:50.218Z,8.98
2023-04-18T10:32:20.469Z,9.07
2023-04-18T10:34:50.657Z,9.70
2023-04-18T10:37:19.183Z,10.13
2023-04-18T10:39:57.158Z,8.95
2023-04-18T10:42:59.414Z,9.77
2023-04-18T10:45:29.792Z,9.75
2023-04-18T10:48:29.488Z,9.10
2023-04-18T10:51:19.966Z,8.52
2023-04-18T10:53:52.924Z,9.00
2023-04-18T10:56:21.833Z,9.05
2023-04-18T10:58:53.332Z,8.88
2023-04-18T11:01:31.694Z,9.27
2023-04-18T11:04:01.728Z,9.05
2023-04-18T11:06:32.115Z,8.75
2023-04-18T11:09:13.723Z,8.80
2023-04-18T11:11:43.582Z,9.35
2023-04-18T11:14:12.594Z,8.80
2023-04-18T11:16:41.451Z,8.48
2023-04-18T11:19:21.081Z,8.07
2023-04-18T11:21:51.899Z,9.20
2023-04-18T11:24:24.607Z,9.25
2023-04-18T11:26:55.946Z,8.75
2023-04-18T11:29:25.212Z,8.70
2023-04-18T11:31:57.565Z,8.48
2023-04-18T11:34:30.937Z,7.88
2023-04-18T11:37:01.108Z,8.25
2023-04-18T11:39:29.780Z,8.07
2023-04-18T11:42:01.525Z,8.68
2023-04-18T11:44:30.023Z,7.70
2023-04-18T11:46:58.481Z,8.40
2023-04-18T11:49:28.211Z,7.88
2023-04-18T11:51:58.128Z,7.78
2023-04-18T11:54:44.962Z,8.68
2023-04-18T11:57:22.164Z,8.10
2023-04-18T11:59:54.966Z,8.18
2023-04-18T12:02:24.839Z,8.20
2023-04-18T12:04:56.036Z,7.97
2023-04-18T12:07:39.272Z,7.88
2023-04-18T12:10:11.191Z,7.85
2023-04-18T12:12:48.724Z,6.97
2023-04-18T12:15:18.167Z,7.60
2023-04-18T12:17:48.598Z,8.57
2023-04-18T12:20:18.549Z,8.65
2023-04-18T12:22:49.035Z,8.18
2023-04-18T12:25:26.225Z,8.45
2023-04-18T12:27:58.809Z,7.78
2023-04-18T12:30:29.547Z,8.25
2023-04-18T12:33:00.169Z,7.93
2023-04-18T12:35:30.037Z,8.32
2023-04-18T12:38:00.216Z,8.27
2023-04-18T12:40:30.964Z,8.45
2023-04-18T12:43:01.033Z,8.70
2023-04-18T12:45:31.146Z,7.70
2023-04-18T12:47:59.691Z,12.02
2023-04-18T12:50:28.515Z,8.02
2023-04-18T12:53:00.048Z,8.38
2023-04-18T12:55:30.739Z,8.52
2023-04-18T12:57:59.519Z,8.43
2023-04-18T13:00:29.823Z,9.27
2023-04-18T13:02:59.250Z,8.68
2023-04-18T13:05:33.149Z,9.15
2023-04-18T13:10:36.060Z,8.27
2023-04-18T13:13:04.648Z,8.25
2023-04-18T13:15:33.582Z,8.55
2023-04-18T13:18:05.148Z,9.25
2023-04-18T13:20:34.670Z,28.85
2023-04-18T13:23:04.101Z,9.65
2023-04-18T13:25:32.850Z,11.40
2023-04-18T13:28:03.190Z,9.65
2023-04-18T13:30:32.111Z,9.35
2023-04-18T13:33:00.671Z,8.93
2023-04-18T13:35:29.176Z,9.30
2023-04-18T13:37:57.667Z,8.48
2023-04-18T13:40:26.651Z,9.55
2023-04-18T13:42:55.388Z,9.65
2023-04-18T13:45:25.288Z,10.95
2023-04-18T13:47:53.767Z,8.90
2023-04-18T13:50:23.278Z,9.05
2023-04-18T13:52:52.113Z,9.25
2023-04-18T13:55:24.308Z,8.80
2023-04-18T13:57:52.732Z,8.88
2023-04-18T14:00:22.079Z,8.60
2023-04-18T14:02:52.244Z,8.65
2023-04-18T14:05:20.974Z,8.73
2023-04-18T14:07:49.797Z,7.88
2023-04-18T14:10:18.272Z,7.78
2023-04-18T14:12:47.012Z,8.18
2023-04-18T14:15:15.540Z,8.60
2023-04-18T14:17:45.662Z,8.18
2023-04-18T14:20:19.286Z,8.68
2023-04-18T14:22:47.957Z,8.20
2023-04-18T14:25:17.188Z,9.15
2023-04-18T14:27:49.038Z,7.53
2023-04-18T14:30:17.972Z,7.32
2023-04-18T14:32:46.662Z,8.02
2023-04-18T14:35:16.609Z,7.40
2023-04-18T14:37:46.272Z,7.32
2023-04-18T14:40:16.858Z,7.72
2023-04-18T14:42:45.641Z,7.60
2023-04-18T14:45:14.311Z,7.47
2023-04-18T14:47:42.861Z,8.52
2023-04-18T14:50:13.060Z,6.88
2023-04-18T14:52:43.215Z,7.65
2023-04-18T14:55:12.053Z,6.85
2023-04-18T14:57:41.131Z,7.00
2023-04-18T15:00:12.149Z,6.78
2023-04-18T15:02:41.238Z,7.30
2023-04-18T15:05:11.464Z,8.02
2023-04-18T15:07:40.886Z,7.75
2023-04-18T15:10:12.852Z,6.72
2023-04-18T15:12:41.715Z,7.53
2023-04-18T15:15:10.995Z,7.18
2023-04-18T15:17:39.580Z,6.28
2023-04-18T15:20:09.602Z,6.95
2023-04-18T15:22:38.282Z,7.93
2023-04-18T15:25:07.794Z,11.13
2023-04-18T15:27:37.904Z,7.20
2023-04-18T15:30:08.873Z,7.18
2023-04-18T15:32:40.301Z,7.75
2023-04-18T15:35:09.479Z,8.02
2023-04-18T15:37:38.296Z,8.63
2023-04-18T15:40:09.713Z,7.50
2023-04-18T15:42:41.032Z,8.18
2023-04-18T15:45:10.428Z,8.10
2023-04-18T15:47:39.407Z,8.45
2023-04-18T15:50:09.542Z,9.73
2023-04-18T15:52:38.053Z,7.60
2023-04-18T15:55:07.703Z,7.53
2023-04-18T15:57:36.475Z,6.65
2023-04-18T16:00:11.827Z,6.93
2023-04-18T16:02:40.470Z,8.52
2023-04-18T16:05:10.299Z,8.15
2023-04-18T16:07:40.334Z,8.05
2023-04-18T16:10:11.137Z,8.10
2023-04-18T16:12:44.005Z,8.93
2023-04-18T16:15:15.652Z,8.68
2023-04-18T16:17:44.229Z,8.18
2023-04-18T16:20:13.244Z,8.10
2023-04-18T16:22:41.728Z,9.25
2023-04-18T16:25:11.402Z,9.48
2023-04-18T16:27:39.912Z,8.30
2023-04-18T16:30:10.148Z,7.43
2023-04-18T16:32:40.171Z,7.20
2023-04-18T16:35:10.327Z,8.05
2023-04-18T16:37:38.892Z,8.63
2023-04-18T16:40:10.009Z,6.85
2023-04-18T16:42:39.145Z,7.53
2023-04-18T16:45:09.633Z,7.57
2023-04-18T16:47:39.674Z,8.05
2023-04-18T16:50:09.338Z,7.18
2023-04-18T16:52:37.823Z,8.10
2023-04-18T16:55:06.961Z,7.45
2023-04-18T16:57:35.405Z,10.38
2023-04-18T17:00:04.559Z,7.80
2023-04-18T17:02:36.215Z,11.23
2023-04-18T17:05:07.053Z,10.73
2023-04-18T17:07:35.677Z,9.77
2023-04-18T17:10:04.445Z,8.57
2023-04-18T17:12:33.101Z,7.47
2023-04-18T17:15:01.681Z,11.68
2023-04-18T17:17:33.362Z,9.77
2023-04-18T17:20:01.953Z,9.57
2023-04-18T17:22:33.494Z,9.70
2023-04-18T17:25:02.058Z,10.05
2023-04-18T17:27:33.132Z,12.63
2023-04-18T17:30:01.651Z,8.95
2023-04-18T17:32:30.964Z,8.32
2023-04-18T17:35:00.090Z,8.32
2023-04-18T17:37:28.576Z,11.38
2023-04-18T17:40:00.478Z,14.70
2023-04-18T17:42:28.979Z,8.07
2023-04-18T17:44:57.500Z,8.43
2023-04-18T17:47:26.098Z,8.32
2023-04-18T17:49:54.820Z,8.70
2023-04-18T17:52:23.507Z,8.82
2023-04-18T17:54:52.009Z,8.88
2023-04-18T17:57:22.488Z,8.15
2023-04-18T17:59:51.452Z,7.65
2023-04-18T18:02:20.374Z,8.13
2023-04-18T18:04:49.156Z,7.13
2023-04-18T18:07:17.709Z,8.38
2023-04-18T18:09:46.517Z,6.95
2023-04-18T18:12:14.980Z,7.75
2023-04-18T18:14:44.896Z,7.03
2023-04-18T18:17:13.460Z,7.63
2023-04-18T18:19:41.939Z,7.68
2023-04-18T18:22:10.455Z,7.30
2023-04-18T18:24:38.936Z,7.03
2023-04-18T18:27:07.462Z,7.68
2023-04-18T18:29:36.021Z,7.30
2023-04-18T18:32:06.290Z,6.78
2023-04-18T18:34:34.783Z,7.78
2023-04-18T18:37:03.286Z,7.00
2023-04-18T18:39:31.786Z,6.70
2023-04-18T18:42:01.120Z,6.28
2023-04-18T18:44:30.544Z,7.35
2023-04-18T18:46:59.849Z,7.13
2023-04-18T18:49:29.710Z,6.80
2023-04-18T18:51:58.481Z,5.43
2023-04-18T18:54:28.227Z,6.47
2023-04-18T18:56:56.710Z,6.60
2023-04-18T18:59:25.214Z,6.32
2023-04-18T19:01:53.830Z,7.10
2023-04-18T19:04:23.160Z,8.15
2023-04-18T19:06:53.667Z,6.40
2023-04-18T19:09:22.280Z,6.40
2023-04-18T19:11:51.266Z,6.50
2023-04-18T19:14:19.693Z,5.97
2023-04-18T19:16:48.245Z,5.47
2023-04-18T19:19:17.534Z,5.15
2023-04-18T19:21:46.359Z,6.03
2023-04-18T19:24:16.367Z,5.95
2023-04-18T19:26:44.879Z,5.03
2023-04-18T19:29:14.580Z,4.88
2023-04-18T19:31:43.875Z,6.03
2023-04-18T19:34:13.568Z,5.53
2023-04-18T19:36:42.128Z,5.10
2023-04-18T19:39:10.571Z,6.75
2023-04-18T19:41:41.576Z,6.38
2023-04-18T19:44:10.071Z,5.50
2023-04-18T19:46:38.753Z,6.38
2023-04-18T19:49:07.688Z,5.95
2023-04-18T19:51:36.190Z,6.38
2023-04-18T19:54:04.787Z,6.57
2023-04-18T19:56:33.359Z,5.55
2023-04-18T19:59:06.092Z,6.05
2023-04-18T20:01:34.667Z,5.43
2023-04-18T20:04:03.450Z,6.07
2023-04-18T20:06:32.339Z,6.85
2023-04-18T20:09:00.967Z,6.13
2023-04-18T20:11:29.611Z,6.88
2023-04-18T20:13:58.093Z,6.38
2023-04-18T20:16:28.084Z,6.88
2023-04-18T20:18:57.291Z,6.85
2023-04-18T20:21:25.798Z,6.70
2023-04-18T20:23:54.431Z,6.60
2023-04-18T20:26:23.072Z,6.70
2023-04-18T20:28:51.708Z,6.50
2023-04-18T20:31:20.227Z,6.13
2023-04-18T20:33:50.256Z,5.70
2023-04-18T20:36:18.829Z,5.78
2023-04-18T20:38:47.564Z,5.82
2023-04-18T20:41:18.285Z,6.10
2023-04-18T20:43:47.086Z,5.70
2023-04-18T20:46:16.240Z,6.07
2023-04-18T20:48:45.163Z,6.18
2023-04-18T20:51:15.983Z,6.32
2023-04-18T20:53:44.487Z,6.00
2023-04-18T20:56:13.011Z,6.22
2023-04-18T20:58:42.037Z,5.45
2023-04-18T21:01:10.814Z,7.55
2023-04-18T21:03:39.591Z,5.78
2023-04-18T21:06:08.225Z,10.70
2023-04-18T21:08:39.684Z,8.80
2023-04-18T21:11:08.565Z,6.40
2023-04-18T21:13:37.083Z,6.30
2023-04-18T21:16:07.961Z,5.90
2023-04-18T21:18:36.617Z,5.88
2023-04-18T21:21:05.551Z,5.55
2023-04-18T21:23:34.103Z,5.63
2023-04-18T21:26:04.047Z,5.30
2023-04-18T21:28:32.595Z,5.22
2023-04-18T21:31:01.118Z,5.32
2023-04-18T21:33:29.708Z,5.53
2023-04-18T21:35:58.142Z,5.13
2023-04-18T21:38:26.599Z,5.50
2023-04-18T21:40:55.014Z,5.25
2023-04-18T21:43:24.978Z,5.22
2023-04-18T21:45:53.503Z,9.63
2023-04-18T21:48:21.994Z,5.93
2023-04-18T21:50:55.430Z,6.18
2023-04-18T21:55:52.012Z,6.38
2023-04-18T21:58:20.542Z,5.72
2023-04-18T22:00:51.064Z,5.45
2023-04-18T22:03:19.721Z,5.13
2023-04-18T22:05:48.484Z,5.22
2023-04-18T22:08:16.980Z,4.70
2023-04-18T22:10:46.304Z,4.82
2023-04-18T22:13:14.738Z,4.78
2023-04-18T22:15:43.362Z,5.00
2023-04-18T22:18:14.601Z,4.90
2023-04-18T22:20:43.297Z,5.10
2023-04-18T22:23:12.526Z,4.88
2023-04-18T22:25:41.054Z,5.32
2023-04-18T22:28:09.599Z,5.10
2023-04-18T22:30:38.425Z,5.10
2023-04-18T22:33:06.918Z,5.13
2023-04-18T22:35:36.812Z,5.15
2023-04-18T22:38:05.260Z,5.68
2023-04-18T22:40:33.865Z,5.50
2023-04-18T22:43:02.256Z,5.15
2023-04-18T22:45:30.830Z,5.22
2023-04-18T22:47:59.335Z,4.90
2023-04-18T22:50:27.848Z,4.45
2023-04-18T22:52:58.247Z,5.22
2023-04-18T22:55:26.699Z,4.95
2023-04-18T22:57:55.165Z,4.88
2023-04-18T23:00:23.830Z,5.25
2023-04-18T23:02:52.779Z,5.22
2023-04-18T23:05:21.480Z,5.32
2023-04-18T23:07:49.912Z,6.03
2023-04-18T23:10:19.829Z,5.15
2023-04-18T23:12:49.359Z,5.90
2023-04-18T23:15:17.979Z,5.88
2023-04-18T23:17:46.597Z,5.45
2023-04-18T23:20:15.266Z,5.55
2023-04-18T23:22:43.718Z,5.47
2023-04-18T23:25:12.196Z,6.07
2023-04-18T23:27:42.030Z,5.90
2023-04-18T23:30:11.498Z,5.72
2023-04-18T23:32:40.042Z,5.97
2023-04-18T23:35:09.054Z,5.80
2023-04-18T23:37:38.808Z,6.25
2023-04-18T23:40:09.234Z,6.50
2023-04-18T23:42:37.929Z,6.40
2023-04-18T23:45:08.774Z,6.80
2023-04-18T23:47:37.163Z,6.57
2023-04-18T23:50:06.349Z,6.03
2023-04-18T23:52:35.155Z,6.40
2023-04-18T23:55:03.809Z,6.70
2023-04-18T23:57:35.097Z,6.63
